Strona główna
METAR-TAF:

METAR-TAF

Lotnisko :

Port lotniczy Damaszek

Damaszek, Syria

Szerokość geograficzna: 33-25N, Długość geograficzna: 036-31E, wysokość: 608 m

Aktualna obserwacja pogody

Raport powstał 26 minut temu, godzina 13:10 UTC
Wiatr 22 kt od zachodnio-południowy zachód w porywach dochodzący do 38 kt
Temperatura 38°C
Wilgotność 16%
Ciśnienie 1005 hPa
Widzialność 10 km lub więcej
Brak chmur poniżej 1500 m i brak chmur cumulonimbus

METAR: OSDI 171310Z 24022G38KT CAVOK 38/08 Q1005

czas: 16:36 (13:36 UTC)

Prognoza

Prognoza ważna od 17 godzina 12 UTC do 18 godzina 18 UTC
Wiatr 15 kt od zachód w porywach dochodzący do 25 kt
Widzialność: 8000 m
Mało chmury na wysokości 3000 ft
Przejściowo
od 17 godzina 21 UTC do 18 godzina 06 UTC
Wiatr 10 kt od południowy zachód
Widzialność 10 km lub więcej
Brak chmur poniżej 1500 m i brak chmur cumulonimbus

TAF: OSDI 1712/1818 26015G25KT 8000 FEW030 TEMPO 1721/1806 23010KT CAVOK

Obserwacja i prognoza pogody dla ponad 4000 lotnisk (raport METAR i TAF).

Dostępne stacje oznaczono żółtymi i czerwonymi punktami na mapie.

Najedź kursorem aby zobaczyć nazwę stacji.

Kliknij aby zobaczyć obserwacje i prognozy pogody.

Aby zmienić mapę: kliknij na zielony przycisk z czarnym krzyżykiem, aby powiększyć; na zielony przycisk z myślnikiem, aby pomniejszyć; na zielone strzałki, aby przejść do map sąsiednich.


METAR-TAF: